sensor_id;sensor_type;location;lat;lon;timestamp;temperature;humidity
42615;DHT22;28754;47.700;7.924;2023-04-30T00:01:06;10.60;99.90
42615;DHT22;28754;47.700;7.924;2023-04-30T00:03:53;10.60;99.90
42615;DHT22;28754;47.700;7.924;2023-04-30T00:06:39;10.60;99.90
42615;DHT22;28754;47.700;7.924;2023-04-30T00:09:26;10.50;99.90
42615;DHT22;28754;47.700;7.924;2023-04-30T00:12:13;10.40;99.90
42615;DHT22;28754;47.700;7.924;2023-04-30T00:15:00;10.40;99.90
42615;DHT22;28754;47.700;7.924;2023-04-30T00:17:46;10.30;99.90
42615;DHT22;28754;47.700;7.924;2023-04-30T00:20:33;10.20;99.90
42615;DHT22;28754;47.700;7.924;2023-04-30T00:23:20;10.10;99.90
42615;DHT22;28754;47.700;7.924;2023-04-30T00:26:07;10.10;99.90
42615;DHT22;28754;47.700;7.924;2023-04-30T00:28:55;10.00;99.90
42615;DHT22;28754;47.700;7.924;2023-04-30T00:31:42;10.00;99.90
42615;DHT22;28754;47.700;7.924;2023-04-30T00:34:29;9.90;99.90
42615;DHT22;28754;47.700;7.924;2023-04-30T00:37:16;9.80;99.90
42615;DHT22;28754;47.700;7.924;2023-04-30T00:40:04;9.80;99.90
42615;DHT22;28754;47.700;7.924;2023-04-30T00:42:51;9.80;99.90
42615;DHT22;28754;47.700;7.924;2023-04-30T00:45:40;9.80;99.90
42615;DHT22;28754;47.700;7.924;2023-04-30T00:48:27;9.70;99.90
42615;DHT22;28754;47.700;7.924;2023-04-30T00:51:14;9.70;99.90
42615;DHT22;28754;47.700;7.924;2023-04-30T00:54:02;9.70;99.90
42615;DHT22;28754;47.700;7.924;2023-04-30T00:56:49;9.60;99.90
42615;DHT22;28754;47.700;7.924;2023-04-30T00:59:36;9.60;99.90
42615;DHT22;28754;47.700;7.924;2023-04-30T01:02:24;9.50;99.90
42615;DHT22;28754;47.700;7.924;2023-04-30T01:05:11;9.50;99.90
42615;DHT22;28754;47.700;7.924;2023-04-30T01:07:57;9.50;99.90
42615;DHT22;28754;47.700;7.924;2023-04-30T01:10:52;9.40;99.90
42615;DHT22;28754;47.700;7.924;2023-04-30T01:16:47;9.40;99.90
42615;DHT22;28754;47.700;7.924;2023-04-30T01:19:46;9.40;99.90
42615;DHT22;28754;47.700;7.924;2023-04-30T01:22:46;9.40;99.90
42615;DHT22;28754;47.700;7.924;2023-04-30T01:28:53;9.30;99.90
42615;DHT22;28754;47.700;7.924;2023-04-30T01:31:42;9.30;99.90
42615;DHT22;28754;47.700;7.924;2023-04-30T01:34:30;9.20;99.90
42615;DHT22;28754;47.700;7.924;2023-04-30T01:40:47;9.20;99.90
42615;DHT22;28754;47.700;7.924;2023-04-30T01:47:05;9.10;99.90
42615;DHT22;28754;47.700;7.924;2023-04-30T01:50:24;9.10;99.90
42615;DHT22;28754;47.700;7.924;2023-04-30T01:53:23;9.00;99.90
42615;DHT22;28754;47.700;7.924;2023-04-30T01:56:30;9.10;99.90
42615;DHT22;28754;47.700;7.924;2023-04-30T01:59:21;9.10;99.90
42615;DHT22;28754;47.700;7.924;2023-04-30T02:09:24;9.20;99.90
42615;DHT22;28754;47.700;7.924;2023-04-30T02:12:11;9.20;99.90
42615;DHT22;28754;47.700;7.924;2023-04-30T02:14:58;9.20;99.90
42615;DHT22;28754;47.700;7.924;2023-04-30T02:17:45;9.10;99.90
42615;DHT22;28754;47.700;7.924;2023-04-30T02:20:32;9.10;99.90
42615;DHT22;28754;47.700;7.924;2023-04-30T02:23:18;9.20;99.90
42615;DHT22;28754;47.700;7.924;2023-04-30T02:26:05;9.20;99.90
42615;DHT22;28754;47.700;7.924;2023-04-30T02:28:52;9.10;99.90
42615;DHT22;28754;47.700;7.924;2023-04-30T02:31:39;9.20;99.90
42615;DHT22;28754;47.700;7.924;2023-04-30T02:34:30;9.30;99.90
42615;DHT22;28754;47.700;7.924;2023-04-30T02:37:17;9.40;99.90
42615;DHT22;28754;47.700;7.924;2023-04-30T02:40:04;9.30;99.90
42615;DHT22;28754;47.700;7.924;2023-04-30T02:42:52;9.40;99.90
42615;DHT22;28754;47.700;7.924;2023-04-30T02:45:40;9.30;99.90
42615;DHT22;28754;47.700;7.924;2023-04-30T02:48:27;9.30;99.90
42615;DHT22;28754;47.700;7.924;2023-04-30T02:51:14;9.20;99.90
42615;DHT22;28754;47.700;7.924;2023-04-30T02:54:01;9.20;99.90
42615;DHT22;28754;47.700;7.924;2023-04-30T02:56:48;9.20;99.90
42615;DHT22;28754;47.700;7.924;2023-04-30T02:59:34;9.30;99.90
42615;DHT22;28754;47.700;7.924;2023-04-30T03:02:21;9.20;99.90
42615;DHT22;28754;47.700;7.924;2023-04-30T03:05:10;9.20;99.90
42615;DHT22;28754;47.700;7.924;2023-04-30T03:07:57;9.20;99.90
42615;DHT22;28754;47.700;7.924;2023-04-30T03:10:44;9.20;99.90
42615;DHT22;28754;47.700;7.924;2023-04-30T03:13:31;9.30;99.90
42615;DHT22;28754;47.700;7.924;2023-04-30T03:16:19;9.20;99.90
42615;DHT22;28754;47.700;7.924;2023-04-30T03:19:07;9.20;99.90
42615;DHT22;28754;47.700;7.924;2023-04-30T03:21:54;9.20;99.90
42615;DHT22;28754;47.700;7.924;2023-04-30T03:24:42;9.10;99.90
42615;DHT22;28754;47.700;7.924;2023-04-30T03:27:29;9.20;99.90
42615;DHT22;28754;47.700;7.924;2023-04-30T03:30:16;9.20;99.90
42615;DHT22;28754;47.700;7.924;2023-04-30T03:33:03;9.20;99.90
42615;DHT22;28754;47.700;7.924;2023-04-30T03:35:51;9.20;99.90
42615;DHT22;28754;47.700;7.924;2023-04-30T03:38:39;9.20;99.90
42615;DHT22;28754;47.700;7.924;2023-04-30T03:41:28;9.20;99.90
42615;DHT22;28754;47.700;7.924;2023-04-30T03:44:15;9.20;99.90
42615;DHT22;28754;47.700;7.924;2023-04-30T03:47:01;9.20;99.90
42615;DHT22;28754;47.700;7.924;2023-04-30T03:49:48;9.10;99.90
42615;DHT22;28754;47.700;7.924;2023-04-30T03:52:41;9.10;99.90
42615;DHT22;28754;47.700;7.924;2023-04-30T03:55:28;9.10;99.90
42615;DHT22;28754;47.700;7.924;2023-04-30T03:58:15;9.10;99.90
42615;DHT22;28754;47.700;7.924;2023-04-30T04:05:47;9.10;99.90
42615;DHT22;28754;47.700;7.924;2023-04-30T04:08:34;9.00;99.90
42615;DHT22;28754;47.700;7.924;2023-04-30T04:11:22;9.10;99.90
42615;DHT22;28754;47.700;7.924;2023-04-30T04:14:08;9.10;99.90
42615;DHT22;28754;47.700;7.924;2023-04-30T04:16:55;9.10;99.90
42615;DHT22;28754;47.700;7.924;2023-04-30T04:19:45;9.10;99.90
42615;DHT22;28754;47.700;7.924;2023-04-30T04:22:32;9.10;99.90
42615;DHT22;28754;47.700;7.924;2023-04-30T04:25:20;9.00;99.90
42615;DHT22;28754;47.700;7.924;2023-04-30T04:28:10;9.00;99.90
42615;DHT22;28754;47.700;7.924;2023-04-30T04:30:57;9.00;99.90
42615;DHT22;28754;47.700;7.924;2023-04-30T04:33:45;9.10;99.90
42615;DHT22;28754;47.700;7.924;2023-04-30T04:36:32;9.10;99.90
42615;DHT22;28754;47.700;7.924;2023-04-30T04:39:19;9.20;99.90
42615;DHT22;28754;47.700;7.924;2023-04-30T04:42:07;9.10;99.90
42615;DHT22;28754;47.700;7.924;2023-04-30T04:44:53;9.10;99.90
42615;DHT22;28754;47.700;7.924;2023-04-30T04:47:40;9.10;99.90
42615;DHT22;28754;47.700;7.924;2023-04-30T04:50:27;9.20;99.90
42615;DHT22;28754;47.700;7.924;2023-04-30T04:53:13;9.10;99.90
42615;DHT22;28754;47.700;7.924;2023-04-30T04:56:00;9.20;99.90
42615;DHT22;28754;47.700;7.924;2023-04-30T04:58:47;9.20;99.90
42615;DHT22;28754;47.700;7.924;2023-04-30T05:01:34;9.20;99.90
42615;DHT22;28754;47.700;7.924;2023-04-30T05:04:20;9.20;99.90
42615;DHT22;28754;47.700;7.924;2023-04-30T05:07:28;9.20;99.90
42615;DHT22;28754;47.700;7.924;2023-04-30T05:24:07;9.30;99.90
42615;DHT22;28754;47.700;7.924;2023-04-30T05:31:17;9.40;99.90
42615;DHT22;28754;47.700;7.924;2023-04-30T05:34:54;9.50;99.90
42615;DHT22;28754;47.700;7.924;2023-04-30T05:46:18;9.60;99.90
42615;DHT22;28754;47.700;7.924;2023-04-30T06:03:59;10.20;99.90
42615;DHT22;28754;47.700;7.924;2023-04-30T07:08:31;13.10;99.90
42615;DHT22;28754;47.700;7.924;2023-04-30T07:15:56;12.90;99.90
42615;DHT22;28754;47.700;7.924;2023-04-30T07:19:54;13.30;99.90
42615;DHT22;28754;47.700;7.924;2023-04-30T07:23:36;13.30;99.90
42615;DHT22;28754;47.700;7.924;2023-04-30T07:30:21;13.60;99.90
42615;DHT22;28754;47.700;7.924;2023-04-30T07:42:44;14.00;99.90
42615;DHT22;28754;47.700;7.924;2023-04-30T07:56:24;13.50;99.90
42615;DHT22;28754;47.700;7.924;2023-04-30T08:00:26;13.50;99.90
42615;DHT22;28754;47.700;7.924;2023-04-30T08:04:45;13.50;99.90
42615;DHT22;28754;47.700;7.924;2023-04-30T08:22:35;13.70;99.90
42615;DHT22;28754;47.700;7.924;2023-04-30T08:35:50;13.90;99.90
42615;DHT22;28754;47.700;7.924;2023-04-30T08:38:37;13.70;99.90
42615;DHT22;28754;47.700;7.924;2023-04-30T08:41:43;13.80;99.90
42615;DHT22;28754;47.700;7.924;2023-04-30T08:44:38;13.80;99.90
42615;DHT22;28754;47.700;7.924;2023-04-30T08:47:30;13.80;99.90
42615;DHT22;28754;47.700;7.924;2023-04-30T08:50:22;14.10;99.90
42615;DHT22;28754;47.700;7.924;2023-04-30T08:53:10;14.10;99.90
42615;DHT22;28754;47.700;7.924;2023-04-30T08:55:58;14.20;99.90
42615;DHT22;28754;47.700;7.924;2023-04-30T08:58:45;14.40;99.90
42615;DHT22;28754;47.700;7.924;2023-04-30T09:01:33;14.40;99.90
42615;DHT22;28754;47.700;7.924;2023-04-30T09:04:20;14.10;99.90
42615;DHT22;28754;47.700;7.924;2023-04-30T09:07:08;14.10;99.90
42615;DHT22;28754;47.700;7.924;2023-04-30T09:09:56;14.10;99.90
42615;DHT22;28754;47.700;7.924;2023-04-30T09:13:02;14.00;99.90
42615;DHT22;28754;47.700;7.924;2023-04-30T09:15:51;13.90;99.90
42615;DHT22;28754;47.700;7.924;2023-04-30T09:18:40;14.00;99.90
42615;DHT22;28754;47.700;7.924;2023-04-30T09:21:35;14.30;99.90
42615;DHT22;28754;47.700;7.924;2023-04-30T09:24:22;14.00;99.90
42615;DHT22;28754;47.700;7.924;2023-04-30T09:27:17;14.00;99.90
42615;DHT22;28754;47.700;7.924;2023-04-30T09:30:05;14.20;99.90
42615;DHT22;28754;47.700;7.924;2023-04-30T09:32:56;14.50;99.90
42615;DHT22;28754;47.700;7.924;2023-04-30T09:35:43;14.70;99.90
42615;DHT22;28754;47.700;7.924;2023-04-30T09:38:31;14.50;99.90
42615;DHT22;28754;47.700;7.924;2023-04-30T09:41:27;14.30;99.90
42615;DHT22;28754;47.700;7.924;2023-04-30T09:44:30;14.20;99.90
42615;DHT22;28754;47.700;7.924;2023-04-30T09:47:21;14.20;99.90
42615;DHT22;28754;47.700;7.924;2023-04-30T09:50:12;14.40;99.90
42615;DHT22;28754;47.700;7.924;2023-04-30T09:53:12;14.60;99.90
42615;DHT22;28754;47.700;7.924;2023-04-30T09:56:06;14.40;99.90
42615;DHT22;28754;47.700;7.924;2023-04-30T09:58:56;14.30;99.90
42615;DHT22;28754;47.700;7.924;2023-04-30T10:01:47;14.30;99.90
42615;DHT22;28754;47.700;7.924;2023-04-30T10:04:43;14.20;99.90
42615;DHT22;28754;47.700;7.924;2023-04-30T10:07:37;14.20;99.90
42615;DHT22;28754;47.700;7.924;2023-04-30T10:10:29;14.00;99.90
42615;DHT22;28754;47.700;7.924;2023-04-30T10:13:19;13.90;99.90
42615;DHT22;28754;47.700;7.924;2023-04-30T10:16:27;14.10;99.90
42615;DHT22;28754;47.700;7.924;2023-04-30T10:19:31;14.60;99.90
42615;DHT22;28754;47.700;7.924;2023-04-30T10:22:21;15.20;99.90
42615;DHT22;28754;47.700;7.924;2023-04-30T10:25:09;15.90;99.90
42615;DHT22;28754;47.700;7.924;2023-04-30T10:27:58;15.90;99.90
42615;DHT22;28754;47.700;7.924;2023-04-30T10:30:46;16.00;99.90
42615;DHT22;28754;47.700;7.924;2023-04-30T10:33:36;16.40;99.90
42615;DHT22;28754;47.700;7.924;2023-04-30T10:36:39;17.10;99.90
42615;DHT22;28754;47.700;7.924;2023-04-30T10:39:32;17.40;99.90
42615;DHT22;28754;47.700;7.924;2023-04-30T10:42:20;18.50;99.90
42615;DHT22;28754;47.700;7.924;2023-04-30T10:45:10;18.00;99.90
42615;DHT22;28754;47.700;7.924;2023-04-30T10:48:01;17.60;99.90
42615;DHT22;28754;47.700;7.924;2023-04-30T10:50:50;17.80;99.90
42615;DHT22;28754;47.700;7.924;2023-04-30T10:53:55;18.00;99.90
42615;DHT22;28754;47.700;7.924;2023-04-30T10:56:50;18.00;99.90
42615;DHT22;28754;47.700;7.924;2023-04-30T11:03:08;18.40;99.90
42615;DHT22;28754;47.700;7.924;2023-04-30T11:06:17;17.80;99.90
42615;DHT22;28754;47.700;7.924;2023-04-30T11:09:14;17.70;99.90
42615;DHT22;28754;47.700;7.924;2023-04-30T11:12:14;17.60;99.90
42615;DHT22;28754;47.700;7.924;2023-04-30T11:15:16;17.50;99.90
42615;DHT22;28754;47.700;7.924;2023-04-30T11:18:13;17.20;99.90
42615;DHT22;28754;47.700;7.924;2023-04-30T11:21:03;17.10;99.90
42615;DHT22;28754;47.700;7.924;2023-04-30T11:24:22;17.30;99.90
42615;DHT22;28754;47.700;7.924;2023-04-30T11:27:36;17.50;99.90
42615;DHT22;28754;47.700;7.924;2023-04-30T11:30:28;17.60;99.90
42615;DHT22;28754;47.700;7.924;2023-04-30T11:33:16;17.50;99.90
42615;DHT22;28754;47.700;7.924;2023-04-30T11:36:07;17.10;99.90
42615;DHT22;28754;47.700;7.924;2023-04-30T11:38:54;16.90;99.90
42615;DHT22;28754;47.700;7.924;2023-04-30T11:41:42;16.90;99.90
42615;DHT22;28754;47.700;7.924;2023-04-30T11:44:29;16.90;99.90
42615;DHT22;28754;47.700;7.924;2023-04-30T11:47:15;16.80;99.90
42615;DHT22;28754;47.700;7.924;2023-04-30T11:50:02;16.40;99.90
42615;DHT22;28754;47.700;7.924;2023-04-30T11:52:50;16.10;99.90
42615;DHT22;28754;47.700;7.924;2023-04-30T11:55:39;16.10;99.90
42615;DHT22;28754;47.700;7.924;2023-04-30T11:58:27;15.70;99.90
42615;DHT22;28754;47.700;7.924;2023-04-30T12:01:14;15.80;99.90
42615;DHT22;28754;47.700;7.924;2023-04-30T12:04:02;15.70;99.90
42615;DHT22;28754;47.700;7.924;2023-04-30T12:06:49;15.50;99.90
42615;DHT22;28754;47.700;7.924;2023-04-30T12:09:53;15.60;99.90
42615;DHT22;28754;47.700;7.924;2023-04-30T12:12:44;15.70;99.90
42615;DHT22;28754;47.700;7.924;2023-04-30T12:15:32;15.50;99.90
42615;DHT22;28754;47.700;7.924;2023-04-30T12:18:19;15.40;99.90
42615;DHT22;28754;47.700;7.924;2023-04-30T12:21:06;15.40;99.90
42615;DHT22;28754;47.700;7.924;2023-04-30T12:23:53;15.30;99.90
42615;DHT22;28754;47.700;7.924;2023-04-30T12:26:40;15.30;99.90
42615;DHT22;28754;47.700;7.924;2023-04-30T12:29:27;15.40;99.90
42615;DHT22;28754;47.700;7.924;2023-04-30T12:32:16;15.20;99.90
42615;DHT22;28754;47.700;7.924;2023-04-30T12:35:04;15.30;99.90
42615;DHT22;28754;47.700;7.924;2023-04-30T12:37:55;15.30;99.90
42615;DHT22;28754;47.700;7.924;2023-04-30T12:40:50;15.60;99.90
42615;DHT22;28754;47.700;7.924;2023-04-30T12:43:37;15.60;99.90
42615;DHT22;28754;47.700;7.924;2023-04-30T12:46:27;15.40;99.90
42615;DHT22;28754;47.700;7.924;2023-04-30T12:49:28;15.30;99.90
42615;DHT22;28754;47.700;7.924;2023-04-30T12:52:23;15.20;99.90
42615;DHT22;28754;47.700;7.924;2023-04-30T12:55:19;15.20;99.90
42615;DHT22;28754;47.700;7.924;2023-04-30T12:58:12;15.10;99.90
42615;DHT22;28754;47.700;7.924;2023-04-30T13:00:59;15.10;99.90
42615;DHT22;28754;47.700;7.924;2023-04-30T13:03:46;15.00;99.90
42615;DHT22;28754;47.700;7.924;2023-04-30T13:06:33;14.90;99.90
42615;DHT22;28754;47.700;7.924;2023-04-30T13:09:20;15.00;99.90
42615;DHT22;28754;47.700;7.924;2023-04-30T13:12:07;15.10;99.90
42615;DHT22;28754;47.700;7.924;2023-04-30T13:14:54;15.10;99.90
42615;DHT22;28754;47.700;7.924;2023-04-30T13:17:42;15.20;99.90
42615;DHT22;28754;47.700;7.924;2023-04-30T13:20:29;15.30;99.90
42615;DHT22;28754;47.700;7.924;2023-04-30T13:23:16;15.50;99.90
42615;DHT22;28754;47.700;7.924;2023-04-30T13:26:03;15.50;99.90
42615;DHT22;28754;47.700;7.924;2023-04-30T13:28:50;15.40;99.90
42615;DHT22;28754;47.700;7.924;2023-04-30T13:31:37;15.20;99.90
42615;DHT22;28754;47.700;7.924;2023-04-30T13:34:24;15.20;99.90
42615;DHT22;28754;47.700;7.924;2023-04-30T13:37:10;15.10;99.90
42615;DHT22;28754;47.700;7.924;2023-04-30T13:39:57;15.10;99.90
42615;DHT22;28754;47.700;7.924;2023-04-30T13:42:45;15.10;99.90
42615;DHT22;28754;47.700;7.924;2023-04-30T13:45:33;15.10;99.90
42615;DHT22;28754;47.700;7.924;2023-04-30T13:48:20;15.20;99.90
42615;DHT22;28754;47.700;7.924;2023-04-30T13:51:06;15.30;99.90
42615;DHT22;28754;47.700;7.924;2023-04-30T13:53:53;15.50;99.90
42615;DHT22;28754;47.700;7.924;2023-04-30T13:56:40;15.70;99.90
42615;DHT22;28754;47.700;7.924;2023-04-30T13:59:26;15.80;99.90
42615;DHT22;28754;47.700;7.924;2023-04-30T14:02:14;16.10;99.90
42615;DHT22;28754;47.700;7.924;2023-04-30T14:05:02;16.30;99.90
42615;DHT22;28754;47.700;7.924;2023-04-30T14:07:50;16.20;99.90
42615;DHT22;28754;47.700;7.924;2023-04-30T14:10:36;16.20;99.90
42615;DHT22;28754;47.700;7.924;2023-04-30T14:13:23;16.70;99.90
42615;DHT22;28754;47.700;7.924;2023-04-30T14:16:10;17.10;99.90
42615;DHT22;28754;47.700;7.924;2023-04-30T14:18:56;17.30;99.90
42615;DHT22;28754;47.700;7.924;2023-04-30T14:21:43;17.30;99.90
42615;DHT22;28754;47.700;7.924;2023-04-30T14:24:30;16.80;99.90
42615;DHT22;28754;47.700;7.924;2023-04-30T14:27:17;16.40;99.90
42615;DHT22;28754;47.700;7.924;2023-04-30T14:30:04;15.90;99.90
42615;DHT22;28754;47.700;7.924;2023-04-30T14:32:51;15.60;99.90
42615;DHT22;28754;47.700;7.924;2023-04-30T14:35:40;15.60;99.90
42615;DHT22;28754;47.700;7.924;2023-04-30T14:38:30;15.70;99.90
42615;DHT22;28754;47.700;7.924;2023-04-30T14:41:17;15.70;99.90
42615;DHT22;28754;47.700;7.924;2023-04-30T14:44:04;15.50;99.90
42615;DHT22;28754;47.700;7.924;2023-04-30T14:46:51;15.50;99.90
42615;DHT22;28754;47.700;7.924;2023-04-30T14:49:38;15.60;99.90
42615;DHT22;28754;47.700;7.924;2023-04-30T14:52:24;15.60;99.90
42615;DHT22;28754;47.700;7.924;2023-04-30T14:55:11;15.70;99.90
42615;DHT22;28754;47.700;7.924;2023-04-30T14:57:58;15.60;99.90
42615;DHT22;28754;47.700;7.924;2023-04-30T15:00:45;15.50;99.90
42615;DHT22;28754;47.700;7.924;2023-04-30T15:03:33;15.40;99.90
42615;DHT22;28754;47.700;7.924;2023-04-30T15:06:20;15.30;99.90
42615;DHT22;28754;47.700;7.924;2023-04-30T15:09:07;15.20;99.90
42615;DHT22;28754;47.700;7.924;2023-04-30T15:11:54;15.20;99.90
42615;DHT22;28754;47.700;7.924;2023-04-30T15:14:41;15.30;99.90
42615;DHT22;28754;47.700;7.924;2023-04-30T15:17:27;15.30;99.90
42615;DHT22;28754;47.700;7.924;2023-04-30T15:20:14;15.50;99.90
42615;DHT22;28754;47.700;7.924;2023-04-30T15:23:01;15.60;99.90
42615;DHT22;28754;47.700;7.924;2023-04-30T15:25:50;15.90;99.90
42615;DHT22;28754;47.700;7.924;2023-04-30T15:28:37;15.90;99.90
42615;DHT22;28754;47.700;7.924;2023-04-30T15:31:24;16.00;99.90
42615;DHT22;28754;47.700;7.924;2023-04-30T15:38:43;15.60;99.90
42615;DHT22;28754;47.700;7.924;2023-04-30T15:41:30;15.50;99.90
42615;DHT22;28754;47.700;7.924;2023-04-30T15:44:16;15.50;99.90
42615;DHT22;28754;47.700;7.924;2023-04-30T15:47:03;15.40;99.90
42615;DHT22;28754;47.700;7.924;2023-04-30T15:49:55;15.10;99.90
42615;DHT22;28754;47.700;7.924;2023-04-30T15:53:05;14.90;99.90
42615;DHT22;28754;47.700;7.924;2023-04-30T15:56:02;14.90;99.90
42615;DHT22;28754;47.700;7.924;2023-04-30T15:58:56;14.60;99.90
42615;DHT22;28754;47.700;7.924;2023-04-30T16:01:43;14.70;99.90
42615;DHT22;28754;47.700;7.924;2023-04-30T16:04:29;14.70;99.90
42615;DHT22;28754;47.700;7.924;2023-04-30T16:07:16;14.70;99.90
42615;DHT22;28754;47.700;7.924;2023-04-30T16:10:03;14.60;99.90
42615;DHT22;28754;47.700;7.924;2023-04-30T16:12:55;14.60;99.90
42615;DHT22;28754;47.700;7.924;2023-04-30T16:15:45;14.60;99.90
42615;DHT22;28754;47.700;7.924;2023-04-30T16:18:35;14.70;99.90
42615;DHT22;28754;47.700;7.924;2023-04-30T16:21:22;14.60;99.90
42615;DHT22;28754;47.700;7.924;2023-04-30T16:24:11;14.60;99.90
42615;DHT22;28754;47.700;7.924;2023-04-30T16:27:01;14.60;99.90
42615;DHT22;28754;47.700;7.924;2023-04-30T16:29:47;14.60;99.90
42615;DHT22;28754;47.700;7.924;2023-04-30T16:32:40;14.40;99.90
42615;DHT22;28754;47.700;7.924;2023-04-30T16:35:27;14.30;99.90
42615;DHT22;28754;47.700;7.924;2023-04-30T16:38:16;14.30;99.90
42615;DHT22;28754;47.700;7.924;2023-04-30T16:41:04;14.40;99.90
42615;DHT22;28754;47.700;7.924;2023-04-30T16:43:50;14.40;99.90
42615;DHT22;28754;47.700;7.924;2023-04-30T16:46:37;14.40;99.90
42615;DHT22;28754;47.700;7.924;2023-04-30T16:49:24;14.40;99.90
42615;DHT22;28754;47.700;7.924;2023-04-30T16:52:11;14.50;99.90
42615;DHT22;28754;47.700;7.924;2023-04-30T16:55:01;14.40;99.90
42615;DHT22;28754;47.700;7.924;2023-04-30T16:57:48;14.40;99.90
42615;DHT22;28754;47.700;7.924;2023-04-30T17:00:35;14.50;99.90
42615;DHT22;28754;47.700;7.924;2023-04-30T17:03:23;14.60;99.90
42615;DHT22;28754;47.700;7.924;2023-04-30T17:06:09;14.60;99.90
42615;DHT22;28754;47.700;7.924;2023-04-30T17:08:57;14.40;99.90
42615;DHT22;28754;47.700;7.924;2023-04-30T17:11:44;14.30;99.90
42615;DHT22;28754;47.700;7.924;2023-04-30T17:14:32;14.30;99.90
42615;DHT22;28754;47.700;7.924;2023-04-30T17:17:19;14.30;99.90
42615;DHT22;28754;47.700;7.924;2023-04-30T17:20:06;14.10;99.90
42615;DHT22;28754;47.700;7.924;2023-04-30T17:22:53;14.10;99.90
42615;DHT22;28754;47.700;7.924;2023-04-30T17:25:41;13.90;99.90
42615;DHT22;28754;47.700;7.924;2023-04-30T17:28:28;13.90;99.90
42615;DHT22;28754;47.700;7.924;2023-04-30T17:31:15;13.80;99.90
42615;DHT22;28754;47.700;7.924;2023-04-30T17:34:02;13.90;99.90
42615;DHT22;28754;47.700;7.924;2023-04-30T17:36:48;13.90;99.90
42615;DHT22;28754;47.700;7.924;2023-04-30T17:39:35;13.80;99.90
42615;DHT22;28754;47.700;7.924;2023-04-30T17:42:22;13.80;99.90
42615;DHT22;28754;47.700;7.924;2023-04-30T17:45:09;13.70;99.90
42615;DHT22;28754;47.700;7.924;2023-04-30T17:47:56;13.60;99.90
42615;DHT22;28754;47.700;7.924;2023-04-30T17:50:43;13.50;99.90
42615;DHT22;28754;47.700;7.924;2023-04-30T17:53:30;13.50;99.90
42615;DHT22;28754;47.700;7.924;2023-04-30T17:56:16;13.50;99.90
42615;DHT22;28754;47.700;7.924;2023-04-30T17:59:03;13.50;99.90
42615;DHT22;28754;47.700;7.924;2023-04-30T18:01:50;13.40;99.90
42615;DHT22;28754;47.700;7.924;2023-04-30T18:04:37;13.30;99.90
42615;DHT22;28754;47.700;7.924;2023-04-30T18:07:29;13.30;99.90
42615;DHT22;28754;47.700;7.924;2023-04-30T18:11:10;13.20;99.90
42615;DHT22;28754;47.700;7.924;2023-04-30T18:14:09;13.20;99.90
42615;DHT22;28754;47.700;7.924;2023-04-30T18:16:56;13.20;99.90
42615;DHT22;28754;47.700;7.924;2023-04-30T18:19:43;13.10;99.90
42615;DHT22;28754;47.700;7.924;2023-04-30T18:22:31;13.10;99.90
42615;DHT22;28754;47.700;7.924;2023-04-30T18:25:18;13.10;99.90
42615;DHT22;28754;47.700;7.924;2023-04-30T18:28:05;13.10;99.90
42615;DHT22;28754;47.700;7.924;2023-04-30T18:30:55;13.10;99.90
42615;DHT22;28754;47.700;7.924;2023-04-30T18:33:42;12.90;99.90
42615;DHT22;28754;47.700;7.924;2023-04-30T18:36:29;13.00;99.90
42615;DHT22;28754;47.700;7.924;2023-04-30T18:39:16;12.90;99.90
42615;DHT22;28754;47.700;7.924;2023-04-30T18:42:07;12.90;99.90
42615;DHT22;28754;47.700;7.924;2023-04-30T18:44:55;12.90;99.90
42615;DHT22;28754;47.700;7.924;2023-04-30T18:47:45;12.80;99.90
42615;DHT22;28754;47.700;7.924;2023-04-30T18:50:32;12.80;99.90
42615;DHT22;28754;47.700;7.924;2023-04-30T18:53:19;12.70;99.90
42615;DHT22;28754;47.700;7.924;2023-04-30T18:56:05;12.70;99.90
42615;DHT22;28754;47.700;7.924;2023-04-30T18:58:52;12.70;99.90
42615;DHT22;28754;47.700;7.924;2023-04-30T19:01:48;12.70;99.90
42615;DHT22;28754;47.700;7.924;2023-04-30T19:04:37;12.70;99.90
42615;DHT22;28754;47.700;7.924;2023-04-30T19:07:26;12.70;99.90
42615;DHT22;28754;47.700;7.924;2023-04-30T19:10:13;12.70;99.90
42615;DHT22;28754;47.700;7.924;2023-04-30T19:13:01;12.80;99.90
42615;DHT22;28754;47.700;7.924;2023-04-30T19:15:47;12.70;99.90
42615;DHT22;28754;47.700;7.924;2023-04-30T19:18:34;12.70;99.90
42615;DHT22;28754;47.700;7.924;2023-04-30T19:21:24;12.60;99.90
42615;DHT22;28754;47.700;7.924;2023-04-30T19:24:14;12.60;99.90
42615;DHT22;28754;47.700;7.924;2023-04-30T19:27:04;12.60;99.90
42615;DHT22;28754;47.700;7.924;2023-04-30T19:29:57;12.50;99.90
42615;DHT22;28754;47.700;7.924;2023-04-30T19:32:48;12.50;99.90
42615;DHT22;28754;47.700;7.924;2023-04-30T19:35:42;12.50;99.90
42615;DHT22;28754;47.700;7.924;2023-04-30T19:38:33;12.40;99.90
42615;DHT22;28754;47.700;7.924;2023-04-30T19:41:20;12.50;99.90
42615;DHT22;28754;47.700;7.924;2023-04-30T19:44:09;12.50;99.90
42615;DHT22;28754;47.700;7.924;2023-04-30T19:47:00;12.60;99.90
42615;DHT22;28754;47.700;7.924;2023-04-30T19:49:47;12.50;99.90
42615;DHT22;28754;47.700;7.924;2023-04-30T19:52:56;12.50;99.90
42615;DHT22;28754;47.700;7.924;2023-04-30T19:55:45;12.50;99.90
42615;DHT22;28754;47.700;7.924;2023-04-30T19:58:32;12.50;99.90
42615;DHT22;28754;47.700;7.924;2023-04-30T20:01:19;12.50;99.90
42615;DHT22;28754;47.700;7.924;2023-04-30T20:04:11;12.50;99.90
42615;DHT22;28754;47.700;7.924;2023-04-30T20:07:06;12.40;99.90
42615;DHT22;28754;47.700;7.924;2023-04-30T20:13:54;12.30;99.90
42615;DHT22;28754;47.700;7.924;2023-04-30T20:16:50;12.20;99.90
42615;DHT22;28754;47.700;7.924;2023-04-30T20:19:46;12.10;99.90
42615;DHT22;28754;47.700;7.924;2023-04-30T20:22:44;12.10;99.90
42615;DHT22;28754;47.700;7.924;2023-04-30T20:26:43;12.10;99.90
42615;DHT22;28754;47.700;7.924;2023-04-30T20:30:24;12.10;99.90
42615;DHT22;28754;47.700;7.924;2023-04-30T20:33:12;12.10;99.90
42615;DHT22;28754;47.700;7.924;2023-04-30T20:36:00;12.10;99.90
42615;DHT22;28754;47.700;7.924;2023-04-30T20:38:48;12.10;99.90
42615;DHT22;28754;47.700;7.924;2023-04-30T20:41:35;12.00;99.90
42615;DHT22;28754;47.700;7.924;2023-04-30T20:44:21;12.00;99.90
42615;DHT22;28754;47.700;7.924;2023-04-30T20:47:09;12.00;99.90
42615;DHT22;28754;47.700;7.924;2023-04-30T20:49:59;12.00;99.90
42615;DHT22;28754;47.700;7.924;2023-04-30T20:52:46;12.00;99.90
42615;DHT22;28754;47.700;7.924;2023-04-30T20:55:33;12.00;99.90
42615;DHT22;28754;47.700;7.924;2023-04-30T20:58:20;11.90;99.90
42615;DHT22;28754;47.700;7.924;2023-04-30T21:01:06;11.90;99.90
42615;DHT22;28754;47.700;7.924;2023-04-30T21:03:56;11.90;99.90
42615;DHT22;28754;47.700;7.924;2023-04-30T21:07:00;11.90;99.90
42615;DHT22;28754;47.700;7.924;2023-04-30T21:09:49;11.90;99.90
42615;DHT22;28754;47.700;7.924;2023-04-30T21:12:55;11.80;99.90
42615;DHT22;28754;47.700;7.924;2023-04-30T21:23:28;11.70;99.90
42615;DHT22;28754;47.700;7.924;2023-04-30T21:26:15;11.70;99.90